Terminal Aerodrome Forecast
Issued by NWS

Home | Current Version | Previous Version | Graphics & Text | Print | Product List | Glossary On
Versions: 1 2 3 4 5 6 7 8 9 10 11 12 13 14 15 16 17 18 19 20 21 22 23
667
FTUS43 KBIS 252209 AAB
TAFMOT
TAF AMD
KMOT 252209Z 2522/2618 33006KT 2SM -SN SCT015 BKN030
     FM252300 33007KT 1SM -SN BKN015
     FM260400 34012KT 3SM -SN BKN035
     FM260600 28007KT P6SM SCT045 BKN090
     FM261100 23005KT P6SM BKN025=

USA.gov is the U.S. government's official web portal to all federal, state and local government web resources and services.